St. Charles, MO

10:36 AM CDT on July 26, 2016 (GMT -0500)
Monticello | | Change Station

Elev 509 ft 38.74 °N, 90.70 °W | Updated 4 minutes ago

Mostly Cloudy
Mostly Cloudy
89.4 °F
Feels Like 98 °F
N
2.7
Wind Variable Wind from NE

Today
High -- | Low -- °F
--% Chance of Precip.
Yesterday
High -- | Low -- °F
Precip. -- in
Pressure 30.00 in
Visibility 10.0 miles
Clouds Scattered Clouds 1500 ft
Mostly Cloudy 3000 ft
Mostly Cloudy 5000 ft
Heat Index 98 °F
Dew Point 74 °F
Humidity 60%
Rainfall 0.00 in
Snow Depth Not available.
5:59 AM 8:18 PM
Waning Gibbous, 53% visible
METAR KSUS 261454Z 06005KT 10SM SCT015 BKN030 BKN050 28/24 A3002 RMK AO2 SLP158 T02780244 58000
Pressure 30.00 in
Visibility 10.0 miles
Clouds Scattered Clouds 1500 ft
Mostly Cloudy 3000 ft
Mostly Cloudy 5000 ft
Heat Index 98 °F
Dew Point 74 °F
Humidity 60%
Rainfall 0.00 in
Snow Depth Not available.
5:59 AM 8:18 PM
Waning Gibbous, 53% visible
METAR KSUS 261454Z 06005KT 10SM SCT015 BKN030 BKN050 28/24 A3002 RMK AO2 SLP158 T02780244 58000

10-Day Weather Forecast

Almanac

Astronomy

Jul. 26, 2016 Rise Set
Actual Time
Civil Twilight
Nautical Twilight
Astronomical Twilight
Moon
Length of Visible Light
Length of Day
Tomorrow will be .
, % of the Moon is Illuminated

Today's Extremes

State Highs State Lows

Community

WunderPhotos

Upload Photos

1,927,615 photos uploaded!

WunderBlog® & News

Nearby

Air Quality

  Air Quality AQ Index Pollutant
Not available.

Snow Depth

Station Depth Elevation

Earthquake Activity

City Distance Mag. Time & Date
Minimum magnitude displayed is 2.5.

Coastal Water Temperatures

Place Temperature

Stations

Nearby Weather Stations

Station Location Temp. Windchill Dew Point Humidity Wind Precip. Elev Updated Type
                   

Watches & Warnings

There are currently no watches in effect.